sensor_id;sensor_type;location;lat;lon;timestamp;P1;durP1;ratioP1;P2;durP2;ratioP2
1128;SDS011;553;51.038;7.216;2022-10-16T00:01:16;4.80;;;3.00;;
1128;SDS011;553;51.038;7.216;2022-10-16T00:03:44;3.83;;;2.97;;
1128;SDS011;553;51.038;7.216;2022-10-16T00:06:12;6.87;;;2.80;;
1128;SDS011;553;51.038;7.216;2022-10-16T00:08:40;3.57;;;2.70;;
1128;SDS011;553;51.038;7.216;2022-10-16T00:11:08;2.80;;;1.90;;
1128;SDS011;553;51.038;7.216;2022-10-16T00:13:40;8.03;;;2.40;;
1128;SDS011;553;51.038;7.216;2022-10-16T00:16:09;2.53;;;2.30;;
1128;SDS011;553;51.038;7.216;2022-10-16T00:18:36;6.83;;;2.60;;
1128;SDS011;553;51.038;7.216;2022-10-16T00:21:04;2.43;;;2.00;;
1128;SDS011;553;51.038;7.216;2022-10-16T00:23:36;2.60;;;2.27;;
1128;SDS011;553;51.038;7.216;2022-10-16T00:26:04;3.37;;;3.00;;
1128;SDS011;553;51.038;7.216;2022-10-16T00:28:33;2.00;;;1.80;;
1128;SDS011;553;51.038;7.216;2022-10-16T00:31:04;4.63;;;2.43;;
1128;SDS011;553;51.038;7.216;2022-10-16T00:33:32;6.07;;;2.73;;
1128;SDS011;553;51.038;7.216;2022-10-16T00:35:59;3.00;;;2.10;;
1128;SDS011;553;51.038;7.216;2022-10-16T00:38:27;2.57;;;2.37;;
1128;SDS011;553;51.038;7.216;2022-10-16T00:40:54;2.40;;;2.20;;
1128;SDS011;553;51.038;7.216;2022-10-16T00:43:41;2.30;;;1.80;;
1128;SDS011;553;51.038;7.216;2022-10-16T00:46:17;2.33;;;2.13;;
1128;SDS011;553;51.038;7.216;2022-10-16T00:49:01;2.47;;;2.00;;
1128;SDS011;553;51.038;7.216;2022-10-16T00:51:35;4.10;;;2.50;;
1128;SDS011;553;51.038;7.216;2022-10-16T00:54:09;3.43;;;2.60;;
1128;SDS011;553;51.038;7.216;2022-10-16T00:56:39;5.73;;;2.70;;
1128;SDS011;553;51.038;7.216;2022-10-16T00:59:10;3.30;;;2.10;;
1128;SDS011;553;51.038;7.216;2022-10-16T01:01:52;3.70;;;2.23;;
1128;SDS011;553;51.038;7.216;2022-10-16T01:04:20;2.93;;;2.20;;
1128;SDS011;553;51.038;7.216;2022-10-16T01:06:54;2.37;;;2.17;;
1128;SDS011;553;51.038;7.216;2022-10-16T01:12:57;4.30;;;2.27;;
1128;SDS011;553;51.038;7.216;2022-10-16T01:15:31;2.10;;;2.00;;
1128;SDS011;553;51.038;7.216;2022-10-16T01:18:11;3.40;;;2.53;;
1128;SDS011;553;51.038;7.216;2022-10-16T01:23:47;4.30;;;2.50;;
1128;SDS011;553;51.038;7.216;2022-10-16T01:26:36;4.23;;;3.53;;
1128;SDS011;553;51.038;7.216;2022-10-16T01:29:14;7.20;;;4.67;;
1128;SDS011;553;51.038;7.216;2022-10-16T01:31:50;5.83;;;2.90;;
1128;SDS011;553;51.038;7.216;2022-10-16T01:34:25;2.60;;;2.40;;
1128;SDS011;553;51.038;7.216;2022-10-16T01:37:14;3.37;;;2.73;;
1128;SDS011;553;51.038;7.216;2022-10-16T01:39:45;3.30;;;2.27;;
1128;SDS011;553;51.038;7.216;2022-10-16T01:44:50;8.30;;;4.83;;
1128;SDS011;553;51.038;7.216;2022-10-16T01:47:18;7.90;;;5.53;;
1128;SDS011;553;51.038;7.216;2022-10-16T01:49:50;8.13;;;4.17;;
1128;SDS011;553;51.038;7.216;2022-10-16T01:52:19;7.00;;;4.13;;
1128;SDS011;553;51.038;7.216;2022-10-16T01:54:50;7.17;;;4.73;;
1128;SDS011;553;51.038;7.216;2022-10-16T01:57:21;6.97;;;5.37;;
1128;SDS011;553;51.038;7.216;2022-10-16T01:59:51;8.57;;;4.87;;
1128;SDS011;553;51.038;7.216;2022-10-16T02:02:22;6.10;;;4.60;;
1128;SDS011;553;51.038;7.216;2022-10-16T02:04:53;12.70;;;7.53;;
1128;SDS011;553;51.038;7.216;2022-10-16T02:07:25;10.30;;;6.77;;
1128;SDS011;553;51.038;7.216;2022-10-16T02:09:53;10.33;;;3.90;;
1128;SDS011;553;51.038;7.216;2022-10-16T02:12:25;8.27;;;5.90;;
1128;SDS011;553;51.038;7.216;2022-10-16T02:14:55;8.60;;;5.83;;
1128;SDS011;553;51.038;7.216;2022-10-16T02:17:23;7.10;;;5.50;;
1128;SDS011;553;51.038;7.216;2022-10-16T02:19:50;8.90;;;5.60;;
1128;SDS011;553;51.038;7.216;2022-10-16T02:25:11;8.20;;;6.80;;
1128;SDS011;553;51.038;7.216;2022-10-16T02:28:01;8.10;;;6.27;;
1128;SDS011;553;51.038;7.216;2022-10-16T02:30:46;3.97;;;3.23;;
1128;SDS011;553;51.038;7.216;2022-10-16T02:33:17;3.80;;;3.17;;
1128;SDS011;553;51.038;7.216;2022-10-16T02:35:46;3.87;;;3.33;;
1128;SDS011;553;51.038;7.216;2022-10-16T02:38:15;4.83;;;3.27;;
1128;SDS011;553;51.038;7.216;2022-10-16T02:40:43;6.97;;;3.50;;
1128;SDS011;553;51.038;7.216;2022-10-16T02:43:10;5.20;;;3.10;;
1128;SDS011;553;51.038;7.216;2022-10-16T02:45:38;3.50;;;3.20;;
1128;SDS011;553;51.038;7.216;2022-10-16T02:48:05;3.17;;;2.60;;
1128;SDS011;553;51.038;7.216;2022-10-16T02:50:32;5.43;;;3.07;;
1128;SDS011;553;51.038;7.216;2022-10-16T02:52:58;4.80;;;2.77;;
1128;SDS011;553;51.038;7.216;2022-10-16T02:55:25;5.90;;;2.47;;
1128;SDS011;553;51.038;7.216;2022-10-16T02:57:54;5.43;;;2.70;;
1128;SDS011;553;51.038;7.216;2022-10-16T03:00:20;3.33;;;2.50;;
1128;SDS011;553;51.038;7.216;2022-10-16T03:02:47;2.10;;;1.90;;
1128;SDS011;553;51.038;7.216;2022-10-16T03:05:14;2.33;;;2.13;;
1128;SDS011;553;51.038;7.216;2022-10-16T03:07:41;2.40;;;2.00;;
1128;SDS011;553;51.038;7.216;2022-10-16T03:10:07;4.03;;;2.17;;
1128;SDS011;553;51.038;7.216;2022-10-16T03:12:34;6.00;;;2.03;;
1128;SDS011;553;51.038;7.216;2022-10-16T03:15:01;6.90;;;2.23;;
1128;SDS011;553;51.038;7.216;2022-10-16T03:17:28;4.67;;;2.30;;
1128;SDS011;553;51.038;7.216;2022-10-16T03:19:55;3.00;;;2.30;;
1128;SDS011;553;51.038;7.216;2022-10-16T03:22:21;3.20;;;2.30;;
1128;SDS011;553;51.038;7.216;2022-10-16T03:24:48;3.43;;;2.70;;
1128;SDS011;553;51.038;7.216;2022-10-16T03:27:15;3.70;;;2.30;;
1128;SDS011;553;51.038;7.216;2022-10-16T03:29:41;2.00;;;1.90;;
1128;SDS011;553;51.038;7.216;2022-10-16T03:32:08;2.73;;;2.40;;
1128;SDS011;553;51.038;7.216;2022-10-16T03:34:34;3.40;;;2.40;;
1128;SDS011;553;51.038;7.216;2022-10-16T03:37:01;2.90;;;2.50;;
1128;SDS011;553;51.038;7.216;2022-10-16T03:39:28;5.53;;;2.40;;
1128;SDS011;553;51.038;7.216;2022-10-16T03:41:54;2.97;;;2.30;;
1128;SDS011;553;51.038;7.216;2022-10-16T03:44:21;3.37;;;2.30;;
1128;SDS011;553;51.038;7.216;2022-10-16T03:46:48;2.43;;;1.80;;
1128;SDS011;553;51.038;7.216;2022-10-16T03:49:14;6.00;;;2.40;;
1128;SDS011;553;51.038;7.216;2022-10-16T03:51:41;4.10;;;1.70;;
1128;SDS011;553;51.038;7.216;2022-10-16T03:54:09;3.30;;;2.47;;
1128;SDS011;553;51.038;7.216;2022-10-16T03:56:36;2.83;;;1.97;;
1128;SDS011;553;51.038;7.216;2022-10-16T03:59:03;3.80;;;2.40;;
1128;SDS011;553;51.038;7.216;2022-10-16T04:01:29;2.50;;;2.27;;
1128;SDS011;553;51.038;7.216;2022-10-16T04:03:56;3.53;;;2.10;;
1128;SDS011;553;51.038;7.216;2022-10-16T04:06:23;6.20;;;1.93;;
1128;SDS011;553;51.038;7.216;2022-10-16T04:08:49;2.20;;;2.00;;
1128;SDS011;553;51.038;7.216;2022-10-16T04:11:16;3.97;;;1.50;;
1128;SDS011;553;51.038;7.216;2022-10-16T04:13:42;2.13;;;1.93;;
1128;SDS011;553;51.038;7.216;2022-10-16T04:16:09;2.90;;;1.73;;
1128;SDS011;553;51.038;7.216;2022-10-16T04:18:36;2.07;;;1.37;;
1128;SDS011;553;51.038;7.216;2022-10-16T04:21:03;1.80;;;1.70;;
1128;SDS011;553;51.038;7.216;2022-10-16T04:23:32;8.27;;;2.00;;
1128;SDS011;553;51.038;7.216;2022-10-16T04:25:59;5.80;;;2.07;;
1128;SDS011;553;51.038;7.216;2022-10-16T04:28:26;2.20;;;2.00;;
1128;SDS011;553;51.038;7.216;2022-10-16T04:30:53;4.43;;;2.30;;
1128;SDS011;553;51.038;7.216;2022-10-16T04:33:20;2.43;;;2.23;;
1128;SDS011;553;51.038;7.216;2022-10-16T04:35:47;2.87;;;1.80;;
1128;SDS011;553;51.038;7.216;2022-10-16T04:38:13;2.43;;;1.60;;
1128;SDS011;553;51.038;7.216;2022-10-16T04:40:41;2.47;;;2.27;;
1128;SDS011;553;51.038;7.216;2022-10-16T04:43:08;6.30;;;1.80;;
1128;SDS011;553;51.038;7.216;2022-10-16T04:45:35;3.67;;;1.93;;
1128;SDS011;553;51.038;7.216;2022-10-16T04:48:01;1.90;;;1.53;;
1128;SDS011;553;51.038;7.216;2022-10-16T04:50:28;3.30;;;1.90;;
1128;SDS011;553;51.038;7.216;2022-10-16T04:53:04;3.00;;;2.00;;
1128;SDS011;553;51.038;7.216;2022-10-16T04:55:31;2.20;;;1.93;;
1128;SDS011;553;51.038;7.216;2022-10-16T04:57:58;1.80;;;1.70;;
1128;SDS011;553;51.038;7.216;2022-10-16T05:00:25;3.73;;;1.30;;
1128;SDS011;553;51.038;7.216;2022-10-16T05:02:52;3.47;;;1.50;;
1128;SDS011;553;51.038;7.216;2022-10-16T05:05:19;3.33;;;1.90;;
1128;SDS011;553;51.038;7.216;2022-10-16T05:07:46;2.40;;;1.87;;
1128;SDS011;553;51.038;7.216;2022-10-16T05:10:13;2.90;;;1.80;;
1128;SDS011;553;51.038;7.216;2022-10-16T05:12:40;2.50;;;2.00;;
1128;SDS011;553;51.038;7.216;2022-10-16T05:15:07;2.30;;;2.10;;
1128;SDS011;553;51.038;7.216;2022-10-16T05:17:34;2.20;;;2.10;;
1128;SDS011;553;51.038;7.216;2022-10-16T05:20:00;3.07;;;2.70;;
1128;SDS011;553;51.038;7.216;2022-10-16T05:22:27;3.30;;;2.03;;
1128;SDS011;553;51.038;7.216;2022-10-16T05:24:54;2.77;;;1.93;;
1128;SDS011;553;51.038;7.216;2022-10-16T05:27:21;3.40;;;2.60;;
1128;SDS011;553;51.038;7.216;2022-10-16T05:29:48;3.00;;;2.00;;
1128;SDS011;553;51.038;7.216;2022-10-16T05:32:15;2.17;;;1.97;;
1128;SDS011;553;51.038;7.216;2022-10-16T05:34:43;6.60;;;2.40;;
1128;SDS011;553;51.038;7.216;2022-10-16T05:37:10;5.00;;;2.70;;
1128;SDS011;553;51.038;7.216;2022-10-16T05:39:38;2.57;;;2.37;;
1128;SDS011;553;51.038;7.216;2022-10-16T05:42:04;3.37;;;2.50;;
1128;SDS011;553;51.038;7.216;2022-10-16T05:44:31;2.57;;;2.37;;
1128;SDS011;553;51.038;7.216;2022-10-16T05:46:59;2.37;;;2.17;;
1128;SDS011;553;51.038;7.216;2022-10-16T05:49:26;2.83;;;2.63;;
1128;SDS011;553;51.038;7.216;2022-10-16T05:51:52;2.83;;;2.63;;
1128;SDS011;553;51.038;7.216;2022-10-16T05:54:19;3.43;;;3.13;;
1128;SDS011;553;51.038;7.216;2022-10-16T05:56:45;3.20;;;2.40;;
1128;SDS011;553;51.038;7.216;2022-10-16T05:59:12;3.00;;;2.80;;
1128;SDS011;553;51.038;7.216;2022-10-16T06:01:39;4.00;;;3.23;;
1128;SDS011;553;51.038;7.216;2022-10-16T06:04:06;3.00;;;2.80;;
1128;SDS011;553;51.038;7.216;2022-10-16T06:06:32;5.50;;;2.97;;
1128;SDS011;553;51.038;7.216;2022-10-16T06:08:59;4.73;;;3.07;;
1128;SDS011;553;51.038;7.216;2022-10-16T06:11:27;3.87;;;3.57;;
1128;SDS011;553;51.038;7.216;2022-10-16T06:13:56;3.10;;;2.90;;
1128;SDS011;553;51.038;7.216;2022-10-16T06:16:27;3.00;;;2.80;;
1128;SDS011;553;51.038;7.216;2022-10-16T06:18:54;4.67;;;3.30;;
1128;SDS011;553;51.038;7.216;2022-10-16T06:21:23;3.23;;;2.93;;
1128;SDS011;553;51.038;7.216;2022-10-16T06:23:51;3.60;;;3.13;;
1128;SDS011;553;51.038;7.216;2022-10-16T06:26:19;3.30;;;2.83;;
1128;SDS011;553;51.038;7.216;2022-10-16T06:28:47;4.50;;;3.10;;
1128;SDS011;553;51.038;7.216;2022-10-16T06:31:14;6.03;;;3.27;;
1128;SDS011;553;51.038;7.216;2022-10-16T06:33:42;4.50;;;3.30;;
1128;SDS011;553;51.038;7.216;2022-10-16T06:36:10;3.33;;;2.90;;
1128;SDS011;553;51.038;7.216;2022-10-16T06:38:39;3.40;;;3.10;;
1128;SDS011;553;51.038;7.216;2022-10-16T06:41:07;3.20;;;2.90;;
1128;SDS011;553;51.038;7.216;2022-10-16T06:43:35;3.00;;;2.70;;
1128;SDS011;553;51.038;7.216;2022-10-16T06:46:02;3.17;;;2.87;;
1128;SDS011;553;51.038;7.216;2022-10-16T06:48:30;3.53;;;2.73;;
1128;SDS011;553;51.038;7.216;2022-10-16T06:51:00;3.80;;;3.20;;
1128;SDS011;553;51.038;7.216;2022-10-16T06:53:55;2.70;;;2.50;;
1128;SDS011;553;51.038;7.216;2022-10-16T06:56:30;3.40;;;3.10;;
1128;SDS011;553;51.038;7.216;2022-10-16T06:58:58;3.63;;;2.70;;
1128;SDS011;553;51.038;7.216;2022-10-16T07:01:25;3.80;;;3.13;;
1128;SDS011;553;51.038;7.216;2022-10-16T07:03:52;3.07;;;2.87;;
1128;SDS011;553;51.038;7.216;2022-10-16T07:06:20;5.90;;;3.73;;
1128;SDS011;553;51.038;7.216;2022-10-16T07:08:48;3.40;;;2.93;;
1128;SDS011;553;51.038;7.216;2022-10-16T07:11:16;3.47;;;3.17;;
1128;SDS011;553;51.038;7.216;2022-10-16T07:13:45;3.27;;;3.00;;
1128;SDS011;553;51.038;7.216;2022-10-16T07:16:21;7.23;;;2.90;;
1128;SDS011;553;51.038;7.216;2022-10-16T07:18:49;6.83;;;2.97;;
1128;SDS011;553;51.038;7.216;2022-10-16T07:21:21;4.63;;;3.93;;
1128;SDS011;553;51.038;7.216;2022-10-16T07:23:52;3.80;;;3.50;;
1128;SDS011;553;51.038;7.216;2022-10-16T07:26:19;3.90;;;3.60;;
1128;SDS011;553;51.038;7.216;2022-10-16T07:28:46;3.80;;;3.30;;
1128;SDS011;553;51.038;7.216;2022-10-16T07:31:13;4.00;;;3.60;;
1128;SDS011;553;51.038;7.216;2022-10-16T07:33:42;3.90;;;2.87;;
1128;SDS011;553;51.038;7.216;2022-10-16T07:36:11;3.13;;;2.90;;
1128;SDS011;553;51.038;7.216;2022-10-16T07:38:41;3.73;;;3.30;;
1128;SDS011;553;51.038;7.216;2022-10-16T07:41:13;3.87;;;3.00;;
1128;SDS011;553;51.038;7.216;2022-10-16T07:43:51;3.07;;;2.60;;
1128;SDS011;553;51.038;7.216;2022-10-16T07:46:19;3.10;;;2.40;;
1128;SDS011;553;51.038;7.216;2022-10-16T07:48:48;3.43;;;2.30;;
1128;SDS011;553;51.038;7.216;2022-10-16T07:51:16;5.00;;;2.10;;
1128;SDS011;553;51.038;7.216;2022-10-16T07:53:47;2.23;;;2.03;;
1128;SDS011;553;51.038;7.216;2022-10-16T07:56:15;3.67;;;2.03;;
1128;SDS011;553;51.038;7.216;2022-10-16T07:58:42;2.87;;;2.13;;
1128;SDS011;553;51.038;7.216;2022-10-16T08:01:10;3.13;;;2.10;;
1128;SDS011;553;51.038;7.216;2022-10-16T08:03:46;5.40;;;2.07;;
1128;SDS011;553;51.038;7.216;2022-10-16T08:06:15;2.30;;;1.77;;
1128;SDS011;553;51.038;7.216;2022-10-16T08:08:42;2.27;;;1.60;;
1128;SDS011;553;51.038;7.216;2022-10-16T08:11:08;1.80;;;1.63;;
1128;SDS011;553;51.038;7.216;2022-10-16T08:13:36;1.73;;;1.53;;
1128;SDS011;553;51.038;7.216;2022-10-16T08:16:03;2.80;;;1.60;;
1128;SDS011;553;51.038;7.216;2022-10-16T08:18:34;1.80;;;1.30;;
1128;SDS011;553;51.038;7.216;2022-10-16T08:21:01;2.53;;;1.30;;
1128;SDS011;553;51.038;7.216;2022-10-16T08:23:29;2.37;;;1.50;;
1128;SDS011;553;51.038;7.216;2022-10-16T08:25:56;2.73;;;1.40;;
1128;SDS011;553;51.038;7.216;2022-10-16T08:28:30;2.50;;;0.90;;
1128;SDS011;553;51.038;7.216;2022-10-16T08:31:04;3.27;;;1.50;;
1128;SDS011;553;51.038;7.216;2022-10-16T08:33:31;4.20;;;1.40;;
1128;SDS011;553;51.038;7.216;2022-10-16T08:35:58;1.47;;;1.37;;
1128;SDS011;553;51.038;7.216;2022-10-16T08:38:25;2.27;;;1.20;;
1128;SDS011;553;51.038;7.216;2022-10-16T08:40:51;2.13;;;1.20;;
1128;SDS011;553;51.038;7.216;2022-10-16T08:46:35;3.03;;;1.30;;
1128;SDS011;553;51.038;7.216;2022-10-16T08:49:16;2.07;;;1.13;;
1128;SDS011;553;51.038;7.216;2022-10-16T08:51:44;3.90;;;1.40;;
1128;SDS011;553;51.038;7.216;2022-10-16T08:54:22;2.03;;;1.10;;
1128;SDS011;553;51.038;7.216;2022-10-16T08:57:09;2.50;;;1.40;;
1128;SDS011;553;51.038;7.216;2022-10-16T08:59:48;1.67;;;0.80;;
1128;SDS011;553;51.038;7.216;2022-10-16T09:02:27;2.57;;;0.90;;
1128;SDS011;553;51.038;7.216;2022-10-16T09:07:49;6.13;;;1.70;;
1128;SDS011;553;51.038;7.216;2022-10-16T09:10:47;2.87;;;0.80;;
1128;SDS011;553;51.038;7.216;2022-10-16T09:13:24;1.60;;;0.97;;
1128;SDS011;553;51.038;7.216;2022-10-16T09:21:35;1.53;;;0.67;;
1128;SDS011;553;51.038;7.216;2022-10-16T09:24:13;0.90;;;0.67;;
1128;SDS011;553;51.038;7.216;2022-10-16T09:26:42;1.10;;;0.67;;
1128;SDS011;553;51.038;7.216;2022-10-16T09:29:11;1.93;;;0.87;;
1128;SDS011;553;51.038;7.216;2022-10-16T09:31:39;2.37;;;1.13;;
1128;SDS011;553;51.038;7.216;2022-10-16T09:34:06;4.30;;;1.13;;
1128;SDS011;553;51.038;7.216;2022-10-16T09:36:41;1.63;;;0.70;;
1128;SDS011;553;51.038;7.216;2022-10-16T09:39:11;3.93;;;0.90;;
1128;SDS011;553;51.038;7.216;2022-10-16T09:41:39;1.97;;;0.67;;
1128;SDS011;553;51.038;7.216;2022-10-16T09:49:54;1.20;;;0.63;;
1128;SDS011;553;51.038;7.216;2022-10-16T09:52:28;2.40;;;0.70;;
1128;SDS011;553;51.038;7.216;2022-10-16T09:54:56;1.87;;;0.70;;
1128;SDS011;553;51.038;7.216;2022-10-16T09:57:25;1.40;;;0.80;;
1128;SDS011;553;51.038;7.216;2022-10-16T09:59:54;1.90;;;0.83;;
1128;SDS011;553;51.038;7.216;2022-10-16T10:02:29;4.00;;;0.90;;
1128;SDS011;553;51.038;7.216;2022-10-16T10:05:00;2.10;;;0.90;;
1128;SDS011;553;51.038;7.216;2022-10-16T10:07:28;1.27;;;0.70;;
1128;SDS011;553;51.038;7.216;2022-10-16T10:10:03;2.67;;;1.00;;
1128;SDS011;553;51.038;7.216;2022-10-16T10:12:31;2.50;;;1.10;;
1128;SDS011;553;51.038;7.216;2022-10-16T10:15:06;2.73;;;0.70;;
1128;SDS011;553;51.038;7.216;2022-10-16T10:17:45;1.23;;;0.80;;
1128;SDS011;553;51.038;7.216;2022-10-16T10:20:24;3.07;;;0.73;;
1128;SDS011;553;51.038;7.216;2022-10-16T10:23:01;1.80;;;0.80;;
1128;SDS011;553;51.038;7.216;2022-10-16T10:25:49;1.10;;;0.73;;
1128;SDS011;553;51.038;7.216;2022-10-16T10:31:14;2.10;;;0.80;;
1128;SDS011;553;51.038;7.216;2022-10-16T10:34:02;1.63;;;0.70;;
1128;SDS011;553;51.038;7.216;2022-10-16T10:36:41;0.80;;;0.60;;
1128;SDS011;553;51.038;7.216;2022-10-16T10:41:57;1.30;;;0.70;;
1128;SDS011;553;51.038;7.216;2022-10-16T10:44:33;1.53;;;0.60;;
1128;SDS011;553;51.038;7.216;2022-10-16T10:47:27;1.63;;;0.83;;
1128;SDS011;553;51.038;7.216;2022-10-16T10:50:18;1.23;;;0.70;;
1128;SDS011;553;51.038;7.216;2022-10-16T10:53:10;2.30;;;1.00;;
1128;SDS011;553;51.038;7.216;2022-10-16T10:56:10;1.57;;;0.60;;
1128;SDS011;553;51.038;7.216;2022-10-16T10:59:01;2.27;;;1.07;;
1128;SDS011;553;51.038;7.216;2022-10-16T11:04:23;3.87;;;0.90;;
1128;SDS011;553;51.038;7.216;2022-10-16T11:06:59;1.93;;;0.70;;
1128;SDS011;553;51.038;7.216;2022-10-16T11:09:34;1.03;;;0.80;;
1128;SDS011;553;51.038;7.216;2022-10-16T11:12:13;3.93;;;1.10;;
1128;SDS011;553;51.038;7.216;2022-10-16T11:17:41;4.00;;;1.63;;
1128;SDS011;553;51.038;7.216;2022-10-16T11:20:21;1.93;;;1.77;;
1128;SDS011;553;51.038;7.216;2022-10-16T11:25:27;3.60;;;0.60;;
1128;SDS011;553;51.038;7.216;2022-10-16T11:30:47;2.43;;;1.97;;
1128;SDS011;553;51.038;7.216;2022-10-16T11:36:20;1.87;;;0.77;;
1128;SDS011;553;51.038;7.216;2022-10-16T11:38:57;1.00;;;0.63;;
1128;SDS011;553;51.038;7.216;2022-10-16T11:53:34;0.90;;;0.60;;
1128;SDS011;553;51.038;7.216;2022-10-16T11:55:59;1.13;;;0.50;;
1128;SDS011;553;51.038;7.216;2022-10-16T11:58:27;4.07;;;1.50;;
1128;SDS011;553;51.038;7.216;2022-10-16T12:01:16;4.53;;;2.77;;
1128;SDS011;553;51.038;7.216;2022-10-16T12:06:30;2.37;;;1.03;;
1128;SDS011;553;51.038;7.216;2022-10-16T12:09:10;5.50;;;0.60;;
1128;SDS011;553;51.038;7.216;2022-10-16T12:11:44;2.03;;;1.03;;
1128;SDS011;553;51.038;7.216;2022-10-16T12:16:38;1.10;;;0.40;;
1128;SDS011;553;51.038;7.216;2022-10-16T12:19:17;1.80;;;1.23;;
1128;SDS011;553;51.038;7.216;2022-10-16T12:21:44;2.70;;;0.70;;
1128;SDS011;553;51.038;7.216;2022-10-16T12:24:30;1.20;;;0.60;;
1128;SDS011;553;51.038;7.216;2022-10-16T12:26:59;1.43;;;0.50;;
1128;SDS011;553;51.038;7.216;2022-10-16T12:32:00;1.30;;;0.70;;
1128;SDS011;553;51.038;7.216;2022-10-16T12:34:29;2.00;;;0.70;;
1128;SDS011;553;51.038;7.216;2022-10-16T12:37:11;3.83;;;0.90;;
1128;SDS011;553;51.038;7.216;2022-10-16T12:39:53;0.90;;;0.47;;
1128;SDS011;553;51.038;7.216;2022-10-16T12:44:55;1.10;;;0.70;;
1128;SDS011;553;51.038;7.216;2022-10-16T12:47:23;3.37;;;1.23;;
1128;SDS011;553;51.038;7.216;2022-10-16T12:49:56;1.10;;;0.70;;
1128;SDS011;553;51.038;7.216;2022-10-16T12:54:59;1.53;;;0.70;;
1128;SDS011;553;51.038;7.216;2022-10-16T13:03:02;1.70;;;0.50;;
1128;SDS011;553;51.038;7.216;2022-10-16T13:05:46;0.97;;;0.60;;
1128;SDS011;553;51.038;7.216;2022-10-16T13:11:10;0.90;;;0.50;;
1128;SDS011;553;51.038;7.216;2022-10-16T13:25:15;0.70;;;0.50;;
1128;SDS011;553;51.038;7.216;2022-10-16T13:28:08;1.80;;;0.60;;
1128;SDS011;553;51.038;7.216;2022-10-16T13:30:41;1.40;;;0.50;;
1128;SDS011;553;51.038;7.216;2022-10-16T13:35:51;0.80;;;0.40;;
1128;SDS011;553;51.038;7.216;2022-10-16T13:38:21;1.13;;;0.50;;
1128;SDS011;553;51.038;7.216;2022-10-16T13:40:57;1.13;;;0.63;;
1128;SDS011;553;51.038;7.216;2022-10-16T13:43:36;1.60;;;0.43;;
1128;SDS011;553;51.038;7.216;2022-10-16T13:46:10;2.37;;;0.60;;
1128;SDS011;553;51.038;7.216;2022-10-16T13:48:39;2.03;;;0.40;;
1128;SDS011;553;51.038;7.216;2022-10-16T13:51:16;1.00;;;0.50;;
1128;SDS011;553;51.038;7.216;2022-10-16T13:53:44;1.53;;;0.80;;
1128;SDS011;553;51.038;7.216;2022-10-16T13:56:18;0.87;;;0.53;;
1128;SDS011;553;51.038;7.216;2022-10-16T13:58:57;2.07;;;0.70;;
1128;SDS011;553;51.038;7.216;2022-10-16T14:01:28;1.83;;;0.70;;
1128;SDS011;553;51.038;7.216;2022-10-16T14:04:04;2.63;;;0.60;;
1128;SDS011;553;51.038;7.216;2022-10-16T14:06:33;1.63;;;0.50;;
1128;SDS011;553;51.038;7.216;2022-10-16T14:09:12;1.40;;;0.53;;
1128;SDS011;553;51.038;7.216;2022-10-16T14:12:08;1.00;;;0.70;;
1128;SDS011;553;51.038;7.216;2022-10-16T14:14:40;3.10;;;1.40;;
1128;SDS011;553;51.038;7.216;2022-10-16T14:17:28;16.97;;;13.17;;
1128;SDS011;553;51.038;7.216;2022-10-16T14:20:02;16.50;;;11.33;;
1128;SDS011;553;51.038;7.216;2022-10-16T14:22:36;5.00;;;3.33;;
1128;SDS011;553;51.038;7.216;2022-10-16T14:25:27;2.50;;;1.33;;
1128;SDS011;553;51.038;7.216;2022-10-16T14:30:32;2.20;;;1.00;;
1128;SDS011;553;51.038;7.216;2022-10-16T14:33:05;3.63;;;2.40;;
1128;SDS011;553;51.038;7.216;2022-10-16T14:35:45;1.10;;;0.60;;
1128;SDS011;553;51.038;7.216;2022-10-16T14:38:18;1.70;;;1.17;;
1128;SDS011;553;51.038;7.216;2022-10-16T14:40:47;1.73;;;1.17;;
1128;SDS011;553;51.038;7.216;2022-10-16T14:43:20;3.03;;;1.37;;
1128;SDS011;553;51.038;7.216;2022-10-16T14:45:52;3.00;;;1.60;;
1128;SDS011;553;51.038;7.216;2022-10-16T14:48:21;3.10;;;2.80;;
1128;SDS011;553;51.038;7.216;2022-10-16T14:50:49;1.80;;;1.10;;
1128;SDS011;553;51.038;7.216;2022-10-16T14:53:16;1.77;;;0.80;;
1128;SDS011;553;51.038;7.216;2022-10-16T14:55:43;1.70;;;1.03;;
1128;SDS011;553;51.038;7.216;2022-10-16T14:58:14;1.73;;;0.70;;
1128;SDS011;553;51.038;7.216;2022-10-16T15:00:43;1.50;;;1.00;;
1128;SDS011;553;51.038;7.216;2022-10-16T15:03:10;2.27;;;0.90;;
1128;SDS011;553;51.038;7.216;2022-10-16T15:05:36;1.43;;;0.90;;
1128;SDS011;553;51.038;7.216;2022-10-16T15:08:03;1.40;;;1.03;;
1128;SDS011;553;51.038;7.216;2022-10-16T15:10:35;1.50;;;0.90;;
1128;SDS011;553;51.038;7.216;2022-10-16T15:13:06;2.30;;;0.80;;
1128;SDS011;553;51.038;7.216;2022-10-16T15:15:38;1.30;;;0.90;;
1128;SDS011;553;51.038;7.216;2022-10-16T15:18:10;1.93;;;0.60;;
1128;SDS011;553;51.038;7.216;2022-10-16T15:20:38;1.37;;;0.60;;
1128;SDS011;553;51.038;7.216;2022-10-16T15:23:06;1.03;;;0.60;;
1128;SDS011;553;51.038;7.216;2022-10-16T15:28:19;1.90;;;0.80;;
1128;SDS011;553;51.038;7.216;2022-10-16T15:30:51;4.17;;;0.90;;
1128;SDS011;553;51.038;7.216;2022-10-16T15:33:20;1.60;;;0.70;;
1128;SDS011;553;51.038;7.216;2022-10-16T15:35:49;2.70;;;0.70;;
1128;SDS011;553;51.038;7.216;2022-10-16T15:38:18;2.60;;;0.93;;
1128;SDS011;553;51.038;7.216;2022-10-16T15:40:47;1.90;;;0.83;;
1128;SDS011;553;51.038;7.216;2022-10-16T15:43:14;4.83;;;1.00;;
1128;SDS011;553;51.038;7.216;2022-10-16T15:45:41;3.40;;;0.80;;
1128;SDS011;553;51.038;7.216;2022-10-16T15:48:11;1.73;;;0.83;;
1128;SDS011;553;51.038;7.216;2022-10-16T15:50:39;4.77;;;0.70;;
1128;SDS011;553;51.038;7.216;2022-10-16T15:53:06;2.63;;;1.40;;
1128;SDS011;553;51.038;7.216;2022-10-16T15:55:33;2.53;;;1.60;;
1128;SDS011;553;51.038;7.216;2022-10-16T15:58:00;4.73;;;1.20;;
1128;SDS011;553;51.038;7.216;2022-10-16T16:00:27;2.30;;;1.17;;
1128;SDS011;553;51.038;7.216;2022-10-16T16:02:54;3.83;;;1.50;;
1128;SDS011;553;51.038;7.216;2022-10-16T16:05:21;3.07;;;1.20;;
1128;SDS011;553;51.038;7.216;2022-10-16T16:07:48;1.70;;;1.07;;
1128;SDS011;553;51.038;7.216;2022-10-16T16:10:16;3.80;;;2.27;;
1128;SDS011;553;51.038;7.216;2022-10-16T16:12:45;1.63;;;1.20;;
1128;SDS011;553;51.038;7.216;2022-10-16T16:15:18;3.50;;;0.87;;
1128;SDS011;553;51.038;7.216;2022-10-16T16:17:46;1.40;;;1.17;;
1128;SDS011;553;51.038;7.216;2022-10-16T16:20:14;8.53;;;1.77;;
1128;SDS011;553;51.038;7.216;2022-10-16T16:22:40;2.50;;;1.37;;
1128;SDS011;553;51.038;7.216;2022-10-16T16:25:07;1.87;;;1.10;;
1128;SDS011;553;51.038;7.216;2022-10-16T16:27:35;4.30;;;1.20;;
1128;SDS011;553;51.038;7.216;2022-10-16T16:30:05;2.10;;;1.13;;
1128;SDS011;553;51.038;7.216;2022-10-16T16:32:33;1.90;;;0.83;;
1128;SDS011;553;51.038;7.216;2022-10-16T16:35:01;4.10;;;1.30;;
1128;SDS011;553;51.038;7.216;2022-10-16T16:37:28;1.90;;;1.00;;
1128;SDS011;553;51.038;7.216;2022-10-16T16:39:56;2.67;;;1.23;;
1128;SDS011;553;51.038;7.216;2022-10-16T16:42:27;1.30;;;1.10;;
1128;SDS011;553;51.038;7.216;2022-10-16T16:44:54;3.30;;;1.50;;
1128;SDS011;553;51.038;7.216;2022-10-16T16:47:21;1.67;;;1.20;;
1128;SDS011;553;51.038;7.216;2022-10-16T16:49:48;4.30;;;1.13;;
1128;SDS011;553;51.038;7.216;2022-10-16T16:52:15;15.83;;;8.23;;
1128;SDS011;553;51.038;7.216;2022-10-16T16:54:42;22.13;;;14.00;;
1128;SDS011;553;51.038;7.216;2022-10-16T16:57:10;9.70;;;7.00;;
1128;SDS011;553;51.038;7.216;2022-10-16T16:59:37;17.10;;;10.97;;
1128;SDS011;553;51.038;7.216;2022-10-16T17:02:03;5.50;;;5.00;;
1128;SDS011;553;51.038;7.216;2022-10-16T17:04:30;5.17;;;3.50;;
1128;SDS011;553;51.038;7.216;2022-10-16T17:06:57;5.60;;;4.93;;
1128;SDS011;553;51.038;7.216;2022-10-16T17:09:23;4.27;;;3.03;;
1128;SDS011;553;51.038;7.216;2022-10-16T17:11:50;11.63;;;8.97;;
1128;SDS011;553;51.038;7.216;2022-10-16T17:14:17;4.30;;;3.23;;
1128;SDS011;553;51.038;7.216;2022-10-16T17:16:44;4.20;;;2.43;;
1128;SDS011;553;51.038;7.216;2022-10-16T17:19:12;2.40;;;2.00;;
1128;SDS011;553;51.038;7.216;2022-10-16T17:21:41;2.43;;;1.73;;
1128;SDS011;553;51.038;7.216;2022-10-16T17:24:08;3.20;;;1.90;;
1128;SDS011;553;51.038;7.216;2022-10-16T17:26:36;2.70;;;1.77;;
1128;SDS011;553;51.038;7.216;2022-10-16T17:29:03;4.67;;;2.10;;
1128;SDS011;553;51.038;7.216;2022-10-16T17:31:31;1.77;;;1.50;;
1128;SDS011;553;51.038;7.216;2022-10-16T17:34:02;2.03;;;1.40;;